Pittsburgh, Pennsylvania
Current Conditions -  °F | °C
As of 7:53 PM on Monday 26 Jan 2015 (Local Time) from KAGC Reporting Station
Light Snow Light Snow  
Wind Chill: -10°   Ceiling: 900
Heat Index: -5°   Visibility: 3mi
Dew Point: -7°   Wind: 8mph
Humidity: 85%   Direction: 320°NW
Pressure: 29.79"   Gusts: NA
Location:  40.44°N, 80°W
Report Text: KAGC 270053Z 32007KT 3SM -SN BR OVC009 M05/M07 A2979 RMK AO2 SLP109 P0000 T10501072
Loading
Personal Weather Stations






























Interactive Weather Map New forecast layout! Learn more

10-Day Weather Forecast

Advertisements
Track Severe Weather on mobile